createdAt,value
2023-01-23T00:00:46.188Z,100162.00
2023-01-23T00:03:48.386Z,100163.22
2023-01-23T00:06:50.742Z,100156.59
2023-01-23T00:09:52.932Z,100166.44
2023-01-23T00:12:55.105Z,100165.34
2023-01-23T00:15:57.349Z,100157.16
2023-01-23T00:18:59.757Z,100151.94
2023-01-23T00:22:01.947Z,100146.84
2023-01-23T00:25:05.293Z,100134.56
2023-01-23T00:28:07.508Z,100143.75
2023-01-23T00:31:13.012Z,100139.09
2023-01-23T00:34:15.627Z,100143.50
2023-01-23T00:37:17.899Z,100133.62
2023-01-23T00:40:20.329Z,100139.81
2023-01-23T00:43:23.529Z,100149.31
2023-01-23T00:46:26.092Z,100133.34
2023-01-23T00:49:29.743Z,100141.94
2023-01-23T00:52:31.971Z,100137.28
2023-01-23T00:55:34.145Z,100148.09
2023-01-23T00:58:36.620Z,100150.97
2023-01-23T01:01:38.875Z,100146.69
2023-01-23T01:04:41.109Z,100148.59
2023-01-23T01:07:44.540Z,100146.88
2023-01-23T01:10:46.782Z,100153.31
2023-01-23T01:13:48.977Z,100148.09
2023-01-23T01:16:51.157Z,100152.63
2023-01-23T01:19:53.338Z,100148.22
2023-01-23T01:22:59.272Z,100147.41
2023-01-23T01:26:02.057Z,100146.22
2023-01-23T01:29:04.286Z,100160.62
2023-01-23T01:32:06.536Z,100154.16
2023-01-23T01:35:09.718Z,100136.91
2023-01-23T01:38:11.901Z,100131.09
2023-01-23T01:41:15.544Z,100120.28
2023-01-23T01:44:19.684Z,100125.63
2023-01-23T01:47:22.181Z,100117.19
2023-01-23T01:50:24.403Z,100119.44
2023-01-23T01:53:27.573Z,100126.25
2023-01-23T01:56:30.846Z,100120.41
2023-01-23T01:59:40.587Z,100122.56
2023-01-23T02:02:46.525Z,100129.72
2023-01-23T02:05:50.052Z,100134.69
2023-01-23T02:09:03.989Z,100130.28
2023-01-23T02:12:06.315Z,100132.59
2023-01-23T02:15:08.957Z,100131.87
2023-01-23T02:18:11.167Z,100136.53
2023-01-23T02:21:14.468Z,100122.50
2023-01-23T02:24:28.204Z,100133.28
2023-01-23T02:27:30.754Z,100126.38
2023-01-23T02:30:33.146Z,100121.34
2023-01-23T02:33:35.296Z,100122.69
2023-01-23T02:36:37.466Z,100117.91
2023-01-23T02:39:39.696Z,100113.50
2023-01-23T02:42:44.873Z,100112.06
2023-01-23T02:45:47.752Z,100109.56
2023-01-23T02:48:49.927Z,100101.25
2023-01-23T02:51:53.110Z,100105.47
2023-01-23T02:54:55.629Z,100098.25
2023-01-23T02:58:16.321Z,100096.34
2023-01-23T03:01:18.817Z,100090.12
2023-01-23T03:04:21.773Z,100084.97
2023-01-23T03:07:24.136Z,100082.72
2023-01-23T03:10:26.408Z,100082.53
2023-01-23T03:13:29.678Z,100082.16
2023-01-23T03:16:32.745Z,100078.13
2023-01-23T03:19:35.090Z,100067.25
2023-01-23T03:22:37.304Z,100062.00
2023-01-23T03:25:43.320Z,100061.72
2023-01-23T03:29:04.496Z,100063.75
2023-01-23T03:32:07.016Z,100062.75
2023-01-23T03:35:10.291Z,100058.38
2023-01-23T03:38:14.343Z,100059.56
2023-01-23T03:41:25.575Z,100049.25
2023-01-23T03:44:27.773Z,100052.84
2023-01-23T03:47:29.946Z,100051.50
2023-01-23T03:50:32.105Z,100046.66
2023-01-23T03:53:34.389Z,100043.50
2023-01-23T03:56:37.107Z,100052.62
2023-01-23T03:59:39.355Z,100046.03
2023-01-23T04:02:41.596Z,100049.50
2023-01-23T04:05:43.850Z,100042.47
2023-01-23T04:08:46.204Z,100045.62
2023-01-23T04:11:48.381Z,100050.75
2023-01-23T04:14:50.569Z,100038.97
2023-01-23T04:17:52.784Z,100036.22
2023-01-23T04:20:55.787Z,100044.66
2023-01-23T04:23:58.003Z,100051.44
2023-01-23T04:27:00.167Z,100053.19
2023-01-23T04:30:03.651Z,100046.12
2023-01-23T04:33:05.917Z,100042.97
2023-01-23T04:36:08.486Z,100052.12
2023-01-23T04:39:10.701Z,100041.88
2023-01-23T04:42:12.961Z,100035.50
2023-01-23T04:45:15.234Z,100041.50
2023-01-23T04:48:17.560Z,100048.62
2023-01-23T04:51:19.725Z,100056.50
2023-01-23T04:54:22.416Z,100061.63
2023-01-23T04:57:24.841Z,100064.53
2023-01-23T05:00:28.886Z,100056.38
2023-01-23T05:03:31.087Z,100064.53
2023-01-23T05:06:33.551Z,100072.13
2023-01-23T05:09:35.804Z,100076.22
2023-01-23T05:12:38.046Z,100083.09
2023-01-23T05:15:40.220Z,100083.09
2023-01-23T05:18:42.450Z,100095.19
2023-01-23T05:21:44.777Z,100091.72
2023-01-23T05:24:46.947Z,100087.59
2023-01-23T05:27:49.747Z,100092.56
2023-01-23T05:30:52.072Z,100100.34
2023-01-23T05:33:54.400Z,100095.25
2023-01-23T05:36:56.570Z,100092.88
2023-01-23T05:39:58.745Z,100102.41
2023-01-23T05:43:00.905Z,100103.38
2023-01-23T05:46:03.387Z,100102.66
2023-01-23T05:49:05.665Z,100109.34
2023-01-23T05:52:08.188Z,100112.28
2023-01-23T05:55:10.849Z,100115.00
2023-01-23T05:58:15.706Z,100112.81
2023-01-23T06:01:18.811Z,100116.78
2023-01-23T06:04:21.048Z,100118.31
2023-01-23T06:07:23.251Z,100128.00
2023-01-23T06:10:25.445Z,100132.22
2023-01-23T06:13:28.092Z,100134.31
2023-01-23T06:16:30.279Z,100139.88
2023-01-23T06:19:32.483Z,100144.31
2023-01-23T06:22:34.623Z,100134.94
2023-01-23T06:25:37.707Z,100149.59
2023-01-23T06:28:40.267Z,100150.53
2023-01-23T06:31:42.490Z,100152.75
2023-01-23T06:34:44.666Z,100162.28
2023-01-23T06:37:46.854Z,100166.19
2023-01-23T06:40:49.020Z,100166.16
2023-01-23T06:43:51.326Z,100170.59
2023-01-23T06:46:53.579Z,100169.63
2023-01-23T06:49:55.756Z,100173.75
2023-01-23T06:52:57.969Z,100176.94
2023-01-23T06:56:05.767Z,100182.47
2023-01-23T06:59:08.050Z,100184.41
2023-01-23T07:02:13.003Z,100180.97
2023-01-23T07:05:15.422Z,100180.13
2023-01-23T07:08:17.855Z,100172.50
2023-01-23T07:11:20.058Z,100189.75
2023-01-23T07:14:22.486Z,100186.56
2023-01-23T07:17:24.803Z,100181.72
2023-01-23T07:20:27.437Z,100187.22
2023-01-23T07:23:29.736Z,100192.38
2023-01-23T07:26:31.934Z,100194.53
2023-01-23T07:29:34.494Z,100194.22
2023-01-23T07:32:36.734Z,100205.59
2023-01-23T07:35:39.742Z,100205.84
2023-01-23T07:38:41.903Z,100216.75
2023-01-23T07:41:46.258Z,100217.16
2023-01-23T07:44:48.649Z,100213.00
2023-01-23T07:47:50.790Z,100223.47
2023-01-23T07:50:53.063Z,100232.88
2023-01-23T07:53:55.370Z,100224.72
2023-01-23T07:56:57.624Z,100219.84
2023-01-23T08:00:00.998Z,100226.47
2023-01-23T08:03:03.436Z,100226.47
2023-01-23T08:06:05.929Z,100228.06
2023-01-23T08:09:08.194Z,100222.25
2023-01-23T08:12:12.046Z,100217.28
2023-01-23T08:15:14.239Z,100228.47
2023-01-23T08:18:16.770Z,100223.19
2023-01-23T08:21:18.969Z,100225.28
2023-01-23T08:24:21.299Z,100222.06
2023-01-23T08:27:23.500Z,100220.50
2023-01-23T08:30:25.729Z,100219.72
2023-01-23T08:33:28.036Z,100218.31
2023-01-23T08:36:30.523Z,100220.88
2023-01-23T08:39:32.709Z,100228.25
2023-01-23T08:42:34.919Z,100225.47
2023-01-23T08:45:37.144Z,100225.97
2023-01-23T08:48:39.721Z,100226.50
2023-01-23T08:51:42.039Z,100232.56
2023-01-23T08:54:44.212Z,100236.38
2023-01-23T08:57:46.386Z,100240.75
2023-01-23T09:00:49.215Z,100246.03
2023-01-23T09:03:51.631Z,100248.69
2023-01-23T09:06:53.846Z,100245.06
2023-01-23T09:09:56.016Z,100236.13
2023-01-23T09:12:58.668Z,100233.22
2023-01-23T09:16:01.375Z,100240.66
2023-01-23T09:19:03.668Z,100243.00
2023-01-23T09:22:05.843Z,100242.38
2023-01-23T09:25:08.586Z,100248.88
2023-01-23T09:28:10.757Z,100244.44
2023-01-23T09:31:14.165Z,100247.75
2023-01-23T09:34:17.341Z,100246.56
2023-01-23T09:37:19.721Z,100242.72
2023-01-23T09:40:23.441Z,100241.41
2023-01-23T09:43:31.340Z,100242.09
2023-01-23T09:46:41.426Z,100245.38
2023-01-23T09:49:53.335Z,100235.47
2023-01-23T09:53:01.592Z,100238.00
2023-01-23T09:56:14.637Z,100248.09
2023-01-23T09:59:31.210Z,100247.44
2023-01-23T10:02:34.187Z,100247.59
2023-01-23T10:06:22.623Z,100242.00
2023-01-23T10:09:40.892Z,100239.03
2023-01-23T10:12:45.944Z,100237.41
2023-01-23T10:16:13.126Z,100239.56
2023-01-23T10:19:25.838Z,100235.12
2023-01-23T10:22:38.351Z,100221.38
2023-01-23T10:25:41.280Z,100234.06
2023-01-23T10:28:43.879Z,100216.75
2023-01-23T10:31:50.559Z,100233.81
2023-01-23T10:34:54.618Z,100239.22
2023-01-23T10:38:31.351Z,100235.06
2023-01-23T10:41:34.272Z,100239.53
2023-01-23T10:44:36.456Z,100226.63
2023-01-23T10:47:47.962Z,100224.03
2023-01-23T10:50:52.235Z,100224.84
2023-01-23T10:54:19.418Z,100218.66
2023-01-23T10:57:31.091Z,100219.75
2023-01-23T11:00:35.821Z,100225.56
2023-01-23T11:03:38.786Z,100226.41
2023-01-23T11:06:40.977Z,100223.63
2023-01-23T11:09:47.479Z,100214.78
2023-01-23T11:12:54.542Z,100224.47
2023-01-23T11:15:57.291Z,100214.19
2023-01-23T11:19:17.360Z,100212.91
2023-01-23T11:22:39.761Z,100194.03
2023-01-23T11:25:43.565Z,100202.53
2023-01-23T11:28:51.020Z,100201.03
2023-01-23T11:31:59.297Z,100190.56
2023-01-23T11:35:40.154Z,100180.63
2023-01-23T11:38:52.626Z,100170.53
2023-01-23T11:41:55.430Z,100168.59
2023-01-23T11:45:01.284Z,100158.47
2023-01-23T11:48:22.467Z,100168.88
2023-01-23T11:51:38.569Z,100178.19
2023-01-23T11:54:45.284Z,100176.19
2023-01-23T11:58:03.657Z,100160.91
2023-01-23T12:01:20.773Z,100166.50
2023-01-23T12:04:50.428Z,100171.88
2023-01-23T12:08:19.834Z,100156.63
2023-01-23T12:11:24.436Z,100147.84
2023-01-23T12:14:46.874Z,100163.06
2023-01-23T12:21:39.920Z,100167.78
2023-01-23T12:24:57.114Z,100155.03
2023-01-23T12:28:11.643Z,100146.25
2023-01-23T12:31:33.721Z,100145.97
2023-01-23T12:35:04.895Z,100141.03
2023-01-23T12:38:20.858Z,100151.56
2023-01-23T12:41:37.921Z,100158.81
2023-01-23T12:44:45.068Z,100164.84
2023-01-23T12:47:59.736Z,100151.03
2023-01-23T12:51:17.060Z,100152.94
2023-01-23T12:54:28.196Z,100152.03
2023-01-23T12:57:52.699Z,100161.00
2023-01-23T13:01:05.567Z,100165.75
2023-01-23T13:04:19.843Z,100177.00
2023-01-23T13:07:54.639Z,100159.06
2023-01-23T13:11:29.221Z,100166.16
2023-01-23T13:14:36.888Z,100159.47
2023-01-23T13:17:58.765Z,100152.87
2023-01-23T13:21:22.304Z,100171.28
2023-01-23T13:25:17.577Z,100159.41
2023-01-23T13:28:44.582Z,100162.06
2023-01-23T13:31:50.545Z,100162.44
2023-01-23T13:34:52.893Z,100161.41
2023-01-23T13:37:55.275Z,100165.31
2023-01-23T13:41:11.559Z,100175.66
2023-01-23T13:44:19.073Z,100176.31
2023-01-23T14:22:21.836Z,100226.66
2023-01-23T14:25:25.146Z,100221.75
2023-01-23T14:28:27.767Z,100219.44
2023-01-23T14:31:33.851Z,100220.22
2023-01-23T14:34:39.994Z,100220.16
2023-01-23T14:37:42.300Z,100229.72
2023-01-23T14:40:50.703Z,100228.38
2023-01-23T14:43:54.984Z,100234.53
2023-01-23T14:46:59.062Z,100232.50
2023-01-23T14:50:02.305Z,100232.75
2023-01-23T14:53:07.258Z,100233.56
2023-01-23T14:56:10.841Z,100239.41
2023-01-23T14:59:28.988Z,100235.84
2023-01-23T15:02:31.417Z,100233.31
2023-01-23T15:05:33.923Z,100231.97
2023-01-23T15:08:36.752Z,100238.62
2023-01-23T15:11:38.994Z,100237.00
2023-01-23T15:14:41.637Z,100237.03
2023-01-23T15:17:44.620Z,100228.78
2023-01-23T15:20:56.911Z,100232.09
2023-01-23T15:24:14.273Z,100241.19
2023-01-23T15:27:26.932Z,100243.03
2023-01-23T15:30:30.399Z,100239.22
2023-01-23T15:33:40.218Z,100244.22
2023-01-23T15:37:06.699Z,100233.78
2023-01-23T15:40:32.401Z,100238.94
2023-01-23T15:43:34.601Z,100233.13
2023-01-23T15:46:36.797Z,100224.38
2023-01-23T15:49:40.074Z,100227.66
2023-01-23T15:52:53.092Z,100240.91
2023-01-23T15:55:55.517Z,100233.78
2023-01-23T15:58:59.183Z,100235.62
2023-01-23T16:02:01.544Z,100234.28
2023-01-23T16:05:04.251Z,100240.69
2023-01-23T16:08:15.839Z,100242.81
2023-01-23T16:11:19.406Z,100247.78
2023-01-23T16:14:21.632Z,100242.00
2023-01-23T16:17:23.954Z,100246.47
2023-01-23T16:20:31.626Z,100244.63
2023-01-23T16:23:46.314Z,100250.25
2023-01-23T16:26:50.345Z,100246.56
2023-01-23T16:29:53.391Z,100251.53
2023-01-23T16:32:57.155Z,100257.84
2023-01-23T16:35:59.543Z,100259.28
2023-01-23T16:39:01.827Z,100264.75
2023-01-23T16:42:05.097Z,100268.91
2023-01-23T16:45:33.713Z,100272.06
2023-01-23T16:48:36.053Z,100275.22
2023-01-23T16:51:39.155Z,100279.38
2023-01-23T16:54:42.417Z,100278.53
2023-01-23T16:57:44.691Z,100284.78
2023-01-23T17:00:47.076Z,100291.34
2023-01-23T17:03:58.717Z,100289.69
2023-01-23T17:07:01.028Z,100286.66
2023-01-23T17:10:03.289Z,100304.28
2023-01-23T17:13:05.680Z,100301.56
2023-01-23T17:16:21.893Z,100300.38
2023-01-23T17:19:35.369Z,100299.31
2023-01-23T17:22:40.174Z,100301.87
2023-01-23T17:25:59.034Z,100301.81
2023-01-23T17:29:02.617Z,100307.25
2023-01-23T17:32:05.166Z,100316.59
2023-01-23T17:35:09.535Z,100315.19
2023-01-23T17:38:23.899Z,100316.47
2023-01-23T17:41:26.580Z,100311.13
2023-01-23T17:44:28.865Z,100314.25
2023-01-23T17:47:34.083Z,100313.59
2023-01-23T17:50:36.641Z,100315.63
2023-01-23T17:53:39.001Z,100313.69
2023-01-23T17:56:41.373Z,100317.50
2023-01-23T17:59:44.363Z,100317.03
2023-01-23T18:02:50.278Z,100310.72
2023-01-23T18:05:52.781Z,100321.28
2023-01-23T18:08:55.231Z,100323.28
2023-01-23T18:11:59.090Z,100330.38
2023-01-23T18:15:39.018Z,100331.50
2023-01-23T18:18:42.933Z,100335.91
2023-01-23T18:21:47.740Z,100332.28
2023-01-23T18:24:50.448Z,100332.94
2023-01-23T18:27:55.409Z,100340.72
2023-01-23T18:31:04.827Z,100338.91
2023-01-23T18:34:32.593Z,100346.97
2023-01-23T18:38:00.387Z,100341.25
2023-01-23T18:41:24.197Z,100342.34
2023-01-23T18:44:27.552Z,100328.19
2023-01-23T18:47:30.523Z,100328.78
2023-01-23T18:50:33.226Z,100331.28
2023-01-23T18:53:41.885Z,100321.16
2023-01-23T18:57:26.395Z,100329.50
2023-01-23T19:00:37.954Z,100336.06
2023-01-23T19:03:42.155Z,100334.25
2023-01-23T19:06:44.864Z,100330.25
2023-01-23T19:09:48.371Z,100333.62
2023-01-23T19:13:09.355Z,100337.88
2023-01-23T19:16:23.501Z,100340.03
2023-01-23T19:19:32.282Z,100341.47
2023-01-23T19:22:53.299Z,100338.06
2023-01-23T19:25:56.072Z,100344.78
2023-01-23T19:29:08.410Z,100347.19
2023-01-23T19:32:18.168Z,100344.16
2023-01-23T19:35:20.937Z,100355.97
2023-01-23T19:38:23.646Z,100357.91
2023-01-23T19:41:28.888Z,100349.25
2023-01-23T19:44:31.396Z,100355.50
2023-01-23T19:47:34.014Z,100349.25
2023-01-23T19:50:36.508Z,100362.59
2023-01-23T19:53:39.011Z,100357.06
2023-01-23T19:56:42.400Z,100349.16
2023-01-23T19:59:45.038Z,100349.84
2023-01-23T20:02:47.597Z,100356.88
2023-01-23T20:05:49.989Z,100358.94
2023-01-23T20:08:52.463Z,100349.19
2023-01-23T20:11:58.006Z,100364.81
2023-01-23T20:15:00.601Z,100354.78
2023-01-23T20:18:03.113Z,100353.56
2023-01-23T20:21:05.715Z,100355.28
2023-01-23T20:24:08.752Z,100365.00
2023-01-23T20:27:11.722Z,100371.69
2023-01-23T20:30:18.077Z,100379.31
2023-01-23T20:33:22.255Z,100377.84
2023-01-23T20:36:24.905Z,100383.81
2023-01-23T20:39:27.556Z,100393.22
2023-01-23T20:42:30.038Z,100389.37
2023-01-23T20:45:32.255Z,100395.47
2023-01-23T20:48:35.699Z,100403.16
2023-01-23T20:51:38.152Z,100410.81
2023-01-23T20:54:40.566Z,100413.84
2023-01-23T20:58:01.265Z,100403.47
2023-01-23T21:01:03.930Z,100411.22
2023-01-23T21:04:06.200Z,100416.34
2023-01-23T21:07:08.558Z,100427.75
2023-01-23T21:10:11.950Z,100436.78
2023-01-23T21:13:15.738Z,100440.84
2023-01-23T21:16:18.888Z,100447.22
2023-01-23T21:19:21.537Z,100448.03
2023-01-23T21:22:23.706Z,100444.72
2023-01-23T21:25:26.235Z,100445.72
2023-01-23T21:28:30.185Z,100447.13
2023-01-23T21:31:35.039Z,100445.03
2023-01-23T21:34:37.305Z,100450.00
2023-01-23T21:37:39.523Z,100451.69
2023-01-23T21:40:41.937Z,100457.53
2023-01-23T21:43:44.217Z,100463.59
2023-01-23T21:46:47.029Z,100461.25
2023-01-23T21:49:49.785Z,100452.94
2023-01-23T21:52:52.130Z,100459.97
2023-01-23T21:55:54.438Z,100464.53
2023-01-23T21:58:56.797Z,100467.47
2023-01-23T22:01:59.025Z,100469.66
2023-01-23T22:05:01.269Z,100474.87
2023-01-23T22:08:04.160Z,100458.78
2023-01-23T22:11:07.459Z,100462.53
2023-01-23T22:14:09.671Z,100457.16
2023-01-23T22:17:11.859Z,100469.31
2023-01-23T22:20:14.413Z,100469.25
2023-01-23T22:23:16.573Z,100470.28
2023-01-23T22:26:19.069Z,100479.53
2023-01-23T22:29:22.949Z,100476.75
2023-01-23T22:32:25.618Z,100474.69
2023-01-23T22:35:27.826Z,100468.78
2023-01-23T22:38:29.995Z,100472.09
2023-01-23T22:41:32.320Z,100478.28
2023-01-23T22:44:34.503Z,100482.59
2023-01-23T22:47:36.706Z,100483.56
2023-01-23T22:50:38.864Z,100485.31
2023-01-23T22:53:41.234Z,100495.34
2023-01-23T22:56:44.260Z,100495.81
2023-01-23T22:59:48.381Z,100500.28
2023-01-23T23:02:50.670Z,100498.50
2023-01-23T23:06:06.457Z,100512.06
2023-01-23T23:09:10.609Z,100515.09
2023-01-23T23:12:13.510Z,100523.34
2023-01-23T23:15:16.071Z,100518.53
2023-01-23T23:18:18.264Z,100521.56
2023-01-23T23:21:23.556Z,100524.38
2023-01-23T23:24:25.760Z,100527.53
2023-01-23T23:27:27.922Z,100525.16
2023-01-23T23:30:30.117Z,100524.59
2023-01-23T23:33:32.438Z,100526.16
2023-01-23T23:36:34.864Z,100517.34
2023-01-23T23:39:37.070Z,100515.88
2023-01-23T23:42:39.338Z,100515.78
2023-01-23T23:45:50.753Z,100521.47
2023-01-23T23:48:52.986Z,100517.38
2023-01-23T23:51:55.060Z,100526.25
2023-01-23T23:54:57.241Z,100516.03
2023-01-23T23:57:59.427Z,100523.06
